createdAt,value
2018-06-24T00:01:02.908Z,17.30
2018-06-24T00:03:32.195Z,17.30
2018-06-24T00:06:01.636Z,17.40
2018-06-24T00:08:30.917Z,17.20
2018-06-24T00:11:00.181Z,17.30
2018-06-24T00:13:29.508Z,17.10
2018-06-24T00:15:58.720Z,17.10
2018-06-24T00:18:27.959Z,17.20
2018-06-24T00:20:57.351Z,17.20
2018-06-24T00:23:26.554Z,17.10
2018-06-24T00:25:56.137Z,17.10
2018-06-24T00:28:25.508Z,17.20
2018-06-24T00:30:55.955Z,17.00
2018-06-24T00:33:26.278Z,17.00
2018-06-24T00:35:55.561Z,16.90
2018-06-24T00:38:24.830Z,17.00
2018-06-24T00:40:55.082Z,17.00
2018-06-24T00:43:24.377Z,16.90
2018-06-24T00:45:53.624Z,17.00
2018-06-24T00:48:22.840Z,17.00
2018-06-24T00:50:52.120Z,16.80
2018-06-24T00:53:21.507Z,16.90
2018-06-24T00:55:50.746Z,17.10
2018-06-24T00:58:20.035Z,17.00
2018-06-24T01:00:49.253Z,17.30
2018-06-24T01:03:18.464Z,17.10
2018-06-24T01:05:47.722Z,17.10
2018-06-24T01:08:16.941Z,17.20
2018-06-24T01:10:46.276Z,16.80
2018-06-24T01:13:15.498Z,16.80
2018-06-24T01:15:45.517Z,16.80
2018-06-24T01:18:14.770Z,16.50
2018-06-24T01:20:44.075Z,16.90
2018-06-24T01:23:13.317Z,16.90
2018-06-24T01:25:42.590Z,16.70
2018-06-24T01:28:11.789Z,16.70
2018-06-24T01:30:41.013Z,16.90
2018-06-24T01:33:10.249Z,16.80
2018-06-24T01:35:39.579Z,16.60
2018-06-24T01:38:08.790Z,16.80
2018-06-24T01:40:37.984Z,16.60
2018-06-24T01:43:07.214Z,16.50
2018-06-24T01:45:36.514Z,16.60
2018-06-24T01:48:05.729Z,16.60
2018-06-24T01:50:34.966Z,16.50
2018-06-24T01:55:33.287Z,16.30
2018-06-24T01:58:02.462Z,16.60
2018-06-24T02:00:31.672Z,16.80
2018-06-24T02:03:00.891Z,16.50
2018-06-24T02:05:30.115Z,16.50
2018-06-24T02:07:59.369Z,16.50
2018-06-24T02:10:29.597Z,16.40
2018-06-24T02:12:58.816Z,16.70
2018-06-24T02:15:28.031Z,16.60
2018-06-24T02:17:58.225Z,16.70
2018-06-24T02:20:27.427Z,16.80
2018-06-24T02:22:57.624Z,16.50
2018-06-24T02:25:27.427Z,16.50
2018-06-24T02:27:56.638Z,16.60
2018-06-24T02:30:25.919Z,16.30
2018-06-24T02:32:55.318Z,16.50
2018-06-24T02:35:24.534Z,16.30
2018-06-24T02:37:53.804Z,16.40
2018-06-24T02:40:24.175Z,16.70
2018-06-24T02:42:53.472Z,16.40
2018-06-24T02:45:23.701Z,16.70
2018-06-24T02:47:54.138Z,16.70
2018-06-24T02:50:23.358Z,16.40
2018-06-24T02:52:52.583Z,16.40
2018-06-24T02:55:21.823Z,16.90
2018-06-24T02:57:51.015Z,16.70
2018-06-24T03:00:20.213Z,16.80
2018-06-24T03:02:50.527Z,16.90
2018-06-24T03:05:19.836Z,16.80
2018-06-24T03:07:49.784Z,16.80
2018-06-24T03:10:18.997Z,16.40
2018-06-24T03:12:48.219Z,16.50
2018-06-24T03:15:18.454Z,16.60
2018-06-24T03:17:47.668Z,17.00
2018-06-24T03:20:16.913Z,16.80
2018-06-24T03:22:46.151Z,16.60
2018-06-24T03:25:15.382Z,16.80
2018-06-24T03:27:44.689Z,16.60
2018-06-24T03:30:14.879Z,16.60
2018-06-24T03:32:44.088Z,16.60
2018-06-24T03:35:13.353Z,16.80
2018-06-24T03:37:42.554Z,16.70
2018-06-24T03:40:11.840Z,16.70
2018-06-24T03:42:41.200Z,16.60
2018-06-24T03:45:10.491Z,16.50
2018-06-24T03:47:39.760Z,16.70
2018-06-24T03:50:09.227Z,16.70
2018-06-24T03:52:38.504Z,16.50
2018-06-24T03:55:07.748Z,16.70
2018-06-24T03:57:36.974Z,16.50
2018-06-24T04:00:07.102Z,16.60
2018-06-24T04:02:36.468Z,16.30
2018-06-24T04:05:06.104Z,16.50
2018-06-24T04:07:35.361Z,16.30
2018-06-24T04:10:04.748Z,16.70
2018-06-24T04:12:34.111Z,16.40
2018-06-24T04:15:03.433Z,16.60
2018-06-24T04:17:32.699Z,16.70
2018-06-24T04:20:01.940Z,16.40
2018-06-24T04:22:31.191Z,16.70
2018-06-24T04:25:00.419Z,16.70
2018-06-24T04:27:29.696Z,16.80
2018-06-24T04:29:58.886Z,16.70
2018-06-24T04:32:28.157Z,16.70
2018-06-24T04:34:57.386Z,16.90
2018-06-24T04:37:26.574Z,16.80
2018-06-24T04:39:55.822Z,16.70
2018-06-24T04:42:25.059Z,16.80
2018-06-24T04:44:54.278Z,16.70
2018-06-24T04:47:23.542Z,16.80
2018-06-24T04:49:52.815Z,16.70
2018-06-24T04:52:22.099Z,16.80
2018-06-24T04:54:51.262Z,16.70
2018-06-24T04:57:20.484Z,16.70
2018-06-24T04:59:49.717Z,16.60
2018-06-24T05:02:18.997Z,16.90
2018-06-24T05:04:48.736Z,16.90
2018-06-24T05:09:46.704Z,17.00
2018-06-24T05:12:15.965Z,17.30
2018-06-24T05:14:45.199Z,17.10
2018-06-24T05:17:15.653Z,17.20
2018-06-24T05:19:44.908Z,17.20
2018-06-24T05:22:14.162Z,17.10
2018-06-24T05:24:43.469Z,17.20
2018-06-24T05:27:12.658Z,17.20
2018-06-24T05:29:41.897Z,17.20
2018-06-24T05:32:11.098Z,17.10
2018-06-24T05:34:40.312Z,16.90
2018-06-24T05:37:09.526Z,17.00
2018-06-24T05:39:38.768Z,17.10
2018-06-24T05:42:08.111Z,16.80
2018-06-24T05:44:37.295Z,17.20
2018-06-24T05:47:06.484Z,17.00
2018-06-24T05:52:04.608Z,17.20
2018-06-24T05:54:33.860Z,17.20
2018-06-24T05:58:06.285Z,17.10
2018-06-24T06:00:35.497Z,17.00
2018-06-24T06:03:04.784Z,16.80
2018-06-24T06:05:33.976Z,16.80
2018-06-24T06:08:03.247Z,16.70
2018-06-24T06:10:32.482Z,17.10
2018-06-24T06:13:01.698Z,16.60
2018-06-24T06:15:30.967Z,16.80
2018-06-24T06:18:00.226Z,17.00
2018-06-24T06:20:30.551Z,17.20
2018-06-24T06:22:59.808Z,17.00
2018-06-24T06:25:29.031Z,17.10
2018-06-24T06:27:58.278Z,16.80
2018-06-24T06:30:27.532Z,16.90
2018-06-24T06:32:56.852Z,16.80
2018-06-24T06:35:26.067Z,17.20
2018-06-24T06:37:55.331Z,17.10
2018-06-24T06:40:24.596Z,16.80
2018-06-24T06:42:53.875Z,16.90
2018-06-24T06:45:23.230Z,17.00
2018-06-24T06:47:52.434Z,16.90
2018-06-24T06:50:21.677Z,17.00
2018-06-24T06:52:50.917Z,16.90
2018-06-24T06:55:20.973Z,17.10
2018-06-24T06:57:50.210Z,17.20
2018-06-24T07:00:19.441Z,17.00
2018-06-24T07:02:48.657Z,17.20
2018-06-24T07:05:17.912Z,17.40
2018-06-24T07:07:47.100Z,17.50
2018-06-24T07:10:16.339Z,17.50
2018-06-24T07:12:45.603Z,17.20
2018-06-24T07:15:14.861Z,17.50
2018-06-24T07:17:44.067Z,17.50
2018-06-24T07:22:43.268Z,17.50
2018-06-24T07:25:12.538Z,17.50
2018-06-24T07:27:41.918Z,17.30
2018-06-24T07:30:11.208Z,17.20
2018-06-24T07:32:40.489Z,17.30
2018-06-24T07:35:09.790Z,17.00
2018-06-24T07:37:38.995Z,16.90
2018-06-24T07:40:08.223Z,17.10
2018-06-24T07:42:37.448Z,16.80
2018-06-24T07:45:06.751Z,16.80
2018-06-24T07:47:35.956Z,16.90
2018-06-24T07:50:05.359Z,17.10
2018-06-24T07:52:34.578Z,17.00
2018-06-24T07:55:03.987Z,16.90
2018-06-24T07:57:34.444Z,17.30
2018-06-24T08:00:05.459Z,17.20
2018-06-24T08:02:34.945Z,17.30
2018-06-24T08:05:04.555Z,17.30
2018-06-24T08:07:33.796Z,17.30
2018-06-24T08:10:03.097Z,17.30
2018-06-24T08:12:32.329Z,17.60
2018-06-24T08:15:01.596Z,17.50
2018-06-24T08:17:30.862Z,17.50
2018-06-24T08:20:00.775Z,17.60
2018-06-24T08:22:30.033Z,17.80
2018-06-24T08:24:59.323Z,17.90
2018-06-24T08:27:28.552Z,17.80
2018-06-24T08:29:58.548Z,18.00
2018-06-24T08:32:28.139Z,18.00
2018-06-24T08:34:57.389Z,17.90
2018-06-24T08:37:26.703Z,18.00
2018-06-24T08:39:55.961Z,17.80
2018-06-24T08:42:26.298Z,18.00
2018-06-24T08:44:56.543Z,18.10
2018-06-24T08:47:25.796Z,18.50
2018-06-24T08:49:55.097Z,18.60
2018-06-24T08:52:24.318Z,18.60
2018-06-24T08:54:53.568Z,18.60
2018-06-24T08:57:22.784Z,18.30
2018-06-24T09:02:20.783Z,18.10
2018-06-24T09:04:50.033Z,18.00
2018-06-24T09:07:19.241Z,18.10
2018-06-24T09:09:48.563Z,18.00
2018-06-24T09:12:17.800Z,18.00
2018-06-24T09:14:47.108Z,18.20
2018-06-24T09:17:16.299Z,18.10
2018-06-24T09:19:45.627Z,18.00
2018-06-24T09:22:14.870Z,18.10
2018-06-24T09:24:44.095Z,18.20
2018-06-24T09:27:13.382Z,18.40
2018-06-24T09:29:42.809Z,18.20
2018-06-24T09:32:12.017Z,18.00
2018-06-24T09:34:41.238Z,18.00
2018-06-24T09:37:10.485Z,18.30
2018-06-24T09:39:40.269Z,17.80
2018-06-24T09:42:09.552Z,18.10
2018-06-24T09:44:38.827Z,18.20
2018-06-24T09:49:36.864Z,17.90
2018-06-24T09:52:06.167Z,17.90
2018-06-24T09:54:35.407Z,18.30
2018-06-24T09:57:04.763Z,18.20
2018-06-24T09:59:34.023Z,18.20
2018-06-24T10:02:03.255Z,18.50
2018-06-24T10:04:32.510Z,18.60
2018-06-24T10:07:03.076Z,18.60
2018-06-24T10:09:32.346Z,18.60
2018-06-24T10:12:02.712Z,18.60
2018-06-24T10:14:32.038Z,18.50
2018-06-24T10:17:01.275Z,18.80
2018-06-24T10:19:30.505Z,18.90
2018-06-24T10:21:59.855Z,19.00
2018-06-24T10:24:29.076Z,19.10
2018-06-24T10:26:58.468Z,19.30
2018-06-24T10:29:27.801Z,19.40
2018-06-24T10:31:57.080Z,19.50
2018-06-24T10:34:26.722Z,19.60
2018-06-24T10:36:55.672Z,19.50
2018-06-24T10:39:25.978Z,19.40
2018-06-24T10:41:55.198Z,19.20
2018-06-24T10:44:24.599Z,19.10
2018-06-24T10:46:53.843Z,19.30
2018-06-24T10:49:23.719Z,19.10
2018-06-24T10:51:52.957Z,19.40
2018-06-24T10:54:22.175Z,19.30
2018-06-24T10:56:51.482Z,19.40
2018-06-24T10:59:20.777Z,19.50
2018-06-24T11:01:51.192Z,19.50
2018-06-24T11:04:20.423Z,19.70
2018-06-24T11:06:49.715Z,19.70
2018-06-24T11:09:19.963Z,19.70
2018-06-24T11:11:49.262Z,19.90
2018-06-24T11:14:18.472Z,19.80
2018-06-24T11:16:47.713Z,19.60
2018-06-24T11:19:17.213Z,19.90
2018-06-24T11:21:47.150Z,19.90
2018-06-24T11:24:16.723Z,19.70
2018-06-24T11:26:46.065Z,19.90
2018-06-24T11:29:15.487Z,19.70
2018-06-24T11:31:44.723Z,19.60
2018-06-24T11:34:14.032Z,19.70
2018-06-24T11:36:43.264Z,19.70
2018-06-24T11:39:12.491Z,19.80
2018-06-24T11:41:41.668Z,19.70
2018-06-24T11:44:10.911Z,19.50
2018-06-24T11:46:40.377Z,19.40
2018-06-24T11:49:09.615Z,19.70
2018-06-24T11:51:38.989Z,19.70
2018-06-24T11:54:09.335Z,19.20
2018-06-24T11:56:39.605Z,19.70
2018-06-24T11:59:08.923Z,19.70
2018-06-24T12:01:38.178Z,19.40
2018-06-24T12:04:07.460Z,19.30
2018-06-24T12:06:36.872Z,19.50
2018-06-24T12:09:09.657Z,19.50
2018-06-24T12:11:38.882Z,19.30
2018-06-24T12:14:08.237Z,19.20
2018-06-24T12:19:06.407Z,19.50
2018-06-24T12:21:35.795Z,19.30
2018-06-24T12:24:05.048Z,19.70
2018-06-24T12:26:34.269Z,19.60
2018-06-24T12:29:03.577Z,19.50
2018-06-24T12:31:32.820Z,19.40
2018-06-24T12:34:02.105Z,19.60
2018-06-24T12:36:37.411Z,19.30
2018-06-24T12:39:10.224Z,19.30
2018-06-24T12:41:39.617Z,19.50
2018-06-24T12:44:09.693Z,19.20
2018-06-24T12:46:38.971Z,19.50
2018-06-24T12:49:08.719Z,19.20
2018-06-24T12:51:38.734Z,19.30
2018-06-24T12:54:09.496Z,19.30
2018-06-24T12:56:38.969Z,19.70
2018-06-24T12:59:08.488Z,19.80
2018-06-24T13:01:37.470Z,19.40
2018-06-24T13:04:06.979Z,19.60
2018-06-24T13:06:36.230Z,19.40
2018-06-24T13:09:08.381Z,19.40
2018-06-24T13:11:39.661Z,19.40
2018-06-24T13:14:08.987Z,19.50
2018-06-24T13:16:38.425Z,19.40
2018-06-24T13:19:07.846Z,19.10
2018-06-24T13:24:06.211Z,19.20
2018-06-24T13:26:36.607Z,19.10
2018-06-24T13:29:06.202Z,19.30
2018-06-24T13:31:35.453Z,19.20
2018-06-24T13:34:05.283Z,19.20
2018-06-24T13:36:34.720Z,19.10
2018-06-24T13:39:06.039Z,19.20
2018-06-24T13:41:35.442Z,19.30
2018-06-24T13:44:05.431Z,19.20
2018-06-24T13:46:35.642Z,19.20
2018-06-24T13:49:05.012Z,19.30
2018-06-24T13:51:34.324Z,19.30
2018-06-24T13:54:03.672Z,19.20
2018-06-24T13:56:32.999Z,19.40
2018-06-24T13:59:03.265Z,19.20
2018-06-24T14:01:32.495Z,19.10
2018-06-24T14:04:01.855Z,19.20
2018-06-24T14:06:31.084Z,19.60
2018-06-24T14:11:29.246Z,19.10
2018-06-24T14:13:58.649Z,19.50
2018-06-24T14:16:27.888Z,19.50
2018-06-24T14:18:57.129Z,19.10
2018-06-24T14:21:26.392Z,19.00
2018-06-24T14:23:55.672Z,19.20
2018-06-24T14:26:25.013Z,19.20
2018-06-24T14:28:54.315Z,19.00
2018-06-24T14:31:23.506Z,19.40
2018-06-24T14:33:52.763Z,19.30
2018-06-24T14:36:22.435Z,19.30
2018-06-24T14:38:51.850Z,19.30
2018-06-24T14:41:22.193Z,19.30
2018-06-24T14:43:51.587Z,19.20
2018-06-24T14:46:20.904Z,19.00
2018-06-24T14:48:50.302Z,19.10
2018-06-24T14:51:19.655Z,19.20
2018-06-24T14:53:49.048Z,19.30
2018-06-24T14:56:18.439Z,19.20
2018-06-24T14:58:48.383Z,19.00
2018-06-24T15:01:17.777Z,19.10
2018-06-24T15:03:47.145Z,18.80
2018-06-24T15:06:16.588Z,19.10
2018-06-24T15:08:45.915Z,19.10
2018-06-24T15:11:15.249Z,19.20
2018-06-24T15:13:44.556Z,19.10
2018-06-24T15:16:13.918Z,18.90
2018-06-24T15:18:43.284Z,18.80
2018-06-24T15:21:12.774Z,19.30
2018-06-24T15:23:42.242Z,19.00
2018-06-24T15:26:11.654Z,19.20
2018-06-24T15:28:41.023Z,19.00
2018-06-24T15:31:10.468Z,19.00
2018-06-24T15:38:45.785Z,18.70
2018-06-24T15:41:15.575Z,18.70
2018-06-24T15:43:44.883Z,18.40
2018-06-24T15:46:15.023Z,18.40
2018-06-24T15:48:45.093Z,18.30
2018-06-24T15:51:16.746Z,18.20
2018-06-24T15:56:15.626Z,18.40
2018-06-24T15:58:45.107Z,18.50
2018-06-24T16:01:15.458Z,18.30
2018-06-24T16:03:44.926Z,18.30
2018-06-24T16:06:14.387Z,18.30
2018-06-24T16:08:43.734Z,18.20
2018-06-24T16:11:13.119Z,18.40
2018-06-24T16:13:42.480Z,18.30
2018-06-24T16:16:11.762Z,18.40
2018-06-24T16:18:41.654Z,18.10
2018-06-24T16:21:11.204Z,17.90
2018-06-24T16:23:40.465Z,18.20
2018-06-24T16:26:09.846Z,18.00
2018-06-24T16:28:39.391Z,18.10
2018-06-24T16:31:08.652Z,18.10
2018-06-24T16:33:38.064Z,18.30
2018-06-24T16:36:07.475Z,18.20
2018-06-24T16:38:36.855Z,18.50
2018-06-24T16:41:06.293Z,18.50
2018-06-24T16:43:35.713Z,18.50
2018-06-24T16:46:05.350Z,18.80
2018-06-24T16:48:34.678Z,18.80
2018-06-24T16:51:03.965Z,18.90
2018-06-24T16:53:33.549Z,18.90
2018-06-24T16:56:03.013Z,19.00
2018-06-24T16:58:32.545Z,18.80
2018-06-24T17:01:02.025Z,18.70
2018-06-24T17:03:31.942Z,19.00
2018-06-24T17:06:01.304Z,18.60
2018-06-24T17:08:31.031Z,18.90
2018-06-24T17:11:00.510Z,18.90
2018-06-24T17:13:29.814Z,19.10
2018-06-24T17:15:59.192Z,19.10
2018-06-24T17:18:28.565Z,19.50
2018-06-24T17:20:58.006Z,19.50
2018-06-24T17:23:27.297Z,19.20
2018-06-24T17:25:56.610Z,19.10
2018-06-24T17:28:25.894Z,18.90
2018-06-24T17:30:56.272Z,19.00
2018-06-24T17:33:26.677Z,18.80
2018-06-24T17:38:25.314Z,18.60
2018-06-24T17:40:54.832Z,18.50
2018-06-24T17:43:24.142Z,18.50
2018-06-24T17:45:54.131Z,18.40
2018-06-24T17:48:23.521Z,18.50
2018-06-24T17:50:52.839Z,18.20
2018-06-24T17:53:22.333Z,18.30
2018-06-24T17:55:51.748Z,18.20
2018-06-24T17:58:21.176Z,18.20
2018-06-24T18:00:50.482Z,18.10
2018-06-24T18:03:19.962Z,18.20
2018-06-24T18:05:49.301Z,18.00
2018-06-24T18:08:18.640Z,18.00
2018-06-24T18:10:48.285Z,18.00
2018-06-24T18:13:18.609Z,18.10
2018-06-24T18:15:47.942Z,18.40
2018-06-24T18:18:17.276Z,18.20
2018-06-24T18:20:46.554Z,18.20
2018-06-24T18:23:16.024Z,17.90
2018-06-24T18:25:45.406Z,17.90
2018-06-24T18:28:14.871Z,18.20
2018-06-24T18:30:45.378Z,18.10
2018-06-24T18:33:15.505Z,18.10
2018-06-24T18:35:45.719Z,18.00
2018-06-24T18:38:15.663Z,17.90
2018-06-24T18:40:45.070Z,17.90
2018-06-24T18:43:14.488Z,18.20
2018-06-24T18:45:43.819Z,17.90
2018-06-24T18:48:14.004Z,18.00
2018-06-24T18:50:43.960Z,17.80
2018-06-24T18:53:13.377Z,18.00
2018-06-24T18:55:42.964Z,18.10
2018-06-24T18:58:12.287Z,18.10
2018-06-24T19:00:41.685Z,18.30
2018-06-24T19:03:11.129Z,18.40
2018-06-24T19:05:41.758Z,18.30
2018-06-24T19:08:11.087Z,18.30
2018-06-24T19:10:40.417Z,18.30
2018-06-24T19:13:10.401Z,18.40
2018-06-24T19:15:39.752Z,18.40
2018-06-24T19:18:09.572Z,18.60
2018-06-24T19:20:40.190Z,18.20
2018-06-24T19:23:10.029Z,18.70
2018-06-24T19:25:39.411Z,18.90
2018-06-24T19:28:09.002Z,18.60
2018-06-24T19:30:38.511Z,18.50
2018-06-24T19:33:07.924Z,18.60
2018-06-24T19:35:37.439Z,18.40
2018-06-24T19:38:12.246Z,18.30
2018-06-24T19:40:41.757Z,18.20
2018-06-24T19:43:11.358Z,18.20
2018-06-24T19:45:40.649Z,17.90
2018-06-24T19:48:09.974Z,17.80
2018-06-24T19:50:39.476Z,17.90
2018-06-24T19:53:09.732Z,17.70
2018-06-24T19:55:39.074Z,17.70
2018-06-24T19:58:08.429Z,17.60
2018-06-24T20:00:37.804Z,17.70
2018-06-24T20:03:07.344Z,17.50
2018-06-24T20:05:36.753Z,17.40
2018-06-24T20:08:06.193Z,17.70
2018-06-24T20:10:35.673Z,17.50
2018-06-24T20:13:05.070Z,17.50
2018-06-24T20:15:34.491Z,17.40
2018-06-24T20:18:03.854Z,17.70
2018-06-24T20:20:34.165Z,17.70
2018-06-24T20:23:03.554Z,17.60
2018-06-24T20:25:32.907Z,17.70
2018-06-24T20:28:02.637Z,17.40
2018-06-24T20:30:32.010Z,17.50
2018-06-24T20:33:01.327Z,17.50
2018-06-24T20:35:30.870Z,17.50
2018-06-24T20:38:01.304Z,17.70
2018-06-24T20:40:30.670Z,17.50
2018-06-24T20:43:00.019Z,17.50
2018-06-24T20:45:29.371Z,17.70
2018-06-24T20:47:58.857Z,17.60
2018-06-24T20:50:28.295Z,17.70
2018-06-24T20:52:57.742Z,17.50
2018-06-24T20:55:27.218Z,17.40
2018-06-24T20:57:56.600Z,17.70
2018-06-24T21:00:25.971Z,17.70
2018-06-24T21:02:55.580Z,17.60
2018-06-24T21:05:25.888Z,17.80
2018-06-24T21:07:55.528Z,17.70
2018-06-24T21:10:24.826Z,17.70
2018-06-24T21:12:54.675Z,17.50
2018-06-24T21:15:24.078Z,17.40
2018-06-24T21:17:53.536Z,17.30
2018-06-24T21:20:22.969Z,17.30
2018-06-24T21:22:52.538Z,17.40
2018-06-24T21:25:21.938Z,17.30
2018-06-24T21:27:51.242Z,17.30
2018-06-24T21:30:20.570Z,17.20
2018-06-24T21:32:49.939Z,17.00
2018-06-24T21:35:19.282Z,17.10
2018-06-24T21:37:48.777Z,17.40
2018-06-24T21:40:19.141Z,17.30
2018-06-24T21:42:49.179Z,17.30
2018-06-24T21:45:18.873Z,17.10
2018-06-24T21:47:49.266Z,17.00
2018-06-24T21:50:18.631Z,17.10
2018-06-24T21:52:48.036Z,17.30
2018-06-24T21:55:19.471Z,17.10
2018-06-24T21:57:48.861Z,17.10
2018-06-24T22:00:18.264Z,17.20
2018-06-24T22:02:47.641Z,17.30
2018-06-24T22:05:16.966Z,17.50
2018-06-24T22:07:46.353Z,17.50
2018-06-24T22:10:15.698Z,17.40
2018-06-24T22:12:45.596Z,17.30
2018-06-24T22:15:16.138Z,17.20
2018-06-24T22:17:45.637Z,17.20
2018-06-24T22:20:16.281Z,17.10
2018-06-24T22:22:45.701Z,17.20
2018-06-24T22:25:15.196Z,16.90
2018-06-24T22:27:44.935Z,17.00
2018-06-24T22:30:14.281Z,17.10
2018-06-24T22:32:43.669Z,16.80
2018-06-24T22:37:42.224Z,17.20
2018-06-24T22:40:11.587Z,17.10
2018-06-24T22:42:41.423Z,16.90
2018-06-24T22:45:11.443Z,17.00
2018-06-24T22:47:41.163Z,17.20
2018-06-24T22:50:10.746Z,17.20
2018-06-24T22:52:40.173Z,17.10
2018-06-24T22:55:10.503Z,16.90
2018-06-24T22:57:39.963Z,17.30
2018-06-24T23:00:16.324Z,17.20
2018-06-24T23:02:46.721Z,17.20
2018-06-24T23:05:15.885Z,17.10
2018-06-24T23:07:45.650Z,17.20
2018-06-24T23:10:15.344Z,17.10
2018-06-24T23:12:44.689Z,17.10
2018-06-24T23:15:14.027Z,17.00
2018-06-24T23:17:43.326Z,17.10
2018-06-24T23:20:12.717Z,17.00
2018-06-24T23:22:42.584Z,17.00
2018-06-24T23:25:11.914Z,17.10
2018-06-24T23:27:41.270Z,17.00
2018-06-24T23:30:10.612Z,17.10
2018-06-24T23:32:39.956Z,17.00
2018-06-24T23:35:09.247Z,17.00
2018-06-24T23:40:07.490Z,16.80
2018-06-24T23:42:36.867Z,17.10
2018-06-24T23:45:06.194Z,17.00
2018-06-24T23:47:35.549Z,17.10
2018-06-24T23:50:05.206Z,16.80
2018-06-24T23:52:34.542Z,17.10
2018-06-24T23:55:03.986Z,17.00
2018-06-24T23:57:34.329Z,17.00
